createdAt,value
2017-12-10T00:00:05.078Z,1009.10
2017-12-10T00:01:06.963Z,1009.15
2017-12-10T00:02:08.848Z,1009.11
2017-12-10T00:03:10.721Z,1009.13
2017-12-10T00:04:12.548Z,1009.09
2017-12-10T00:05:14.361Z,1009.04
2017-12-10T00:06:16.232Z,1009.05
2017-12-10T00:07:18.115Z,1009.01
2017-12-10T00:08:19.988Z,1009.01
2017-12-10T00:09:34.145Z,1009.00
2017-12-10T00:10:36.017Z,1008.95
2017-12-10T00:11:37.902Z,1008.93
2017-12-10T00:12:39.773Z,1008.90
2017-12-10T00:13:41.587Z,1008.88
2017-12-10T00:14:43.410Z,1008.90
2017-12-10T00:15:45.294Z,1008.87
2017-12-10T00:16:47.164Z,1008.89
2017-12-10T00:17:49.048Z,1008.83
2017-12-10T00:19:03.195Z,1008.80
2017-12-10T00:20:05.081Z,1008.80
2017-12-10T00:21:06.965Z,1008.75
2017-12-10T00:22:08.836Z,1008.73
2017-12-10T00:23:10.661Z,1008.74
2017-12-10T00:24:12.473Z,1008.70
2017-12-10T00:25:14.355Z,1008.67
2017-12-10T00:26:16.237Z,1008.70
2017-12-10T00:27:18.125Z,1008.69
2017-12-10T00:28:32.272Z,1008.66
2017-12-10T00:29:34.147Z,1008.63
2017-12-10T00:30:36.029Z,1008.62
2017-12-10T00:31:37.900Z,1008.66
2017-12-10T00:32:39.713Z,1008.65
2017-12-10T00:33:41.538Z,1008.68
2017-12-10T00:34:43.470Z,1008.66
2017-12-10T00:35:45.280Z,1008.60
2017-12-10T00:36:47.163Z,1008.58
2017-12-10T00:38:01.358Z,1008.65
2017-12-10T00:39:03.242Z,1008.62
2017-12-10T00:40:05.125Z,1008.61
2017-12-10T00:41:06.998Z,1008.58
2017-12-10T00:42:08.824Z,1008.55
2017-12-10T00:43:10.640Z,1008.55
2017-12-10T00:44:12.522Z,1008.54
2017-12-10T00:45:14.397Z,1008.50
2017-12-10T00:46:16.283Z,1008.49
2017-12-10T00:47:30.438Z,1008.46
2017-12-10T00:48:32.314Z,1008.51
2017-12-10T00:49:34.186Z,1008.48
2017-12-10T00:50:36.070Z,1008.45
2017-12-10T00:51:37.893Z,1008.44
2017-12-10T00:52:39.704Z,1008.42
2017-12-10T00:53:41.587Z,1008.45
2017-12-10T00:54:43.472Z,1008.44
2017-12-10T00:55:45.358Z,1008.48
2017-12-10T00:56:59.516Z,1008.48
2017-12-10T00:58:01.409Z,1008.44
2017-12-10T00:59:03.276Z,1008.48
2017-12-10T01:00:05.162Z,1008.45
2017-12-10T01:01:06.990Z,1008.49
2017-12-10T01:02:08.799Z,1008.44
2017-12-10T01:03:10.671Z,1008.44
2017-12-10T01:04:12.553Z,1008.47
2017-12-10T01:05:14.427Z,1008.38
2017-12-10T01:06:28.583Z,1008.40
2017-12-10T01:07:30.467Z,1008.45
2017-12-10T01:08:32.345Z,1008.44
2017-12-10T01:09:34.209Z,1008.40
2017-12-10T01:10:36.033Z,1008.41
2017-12-10T01:11:37.882Z,1008.37
2017-12-10T01:12:39.705Z,1008.37
2017-12-10T01:13:41.577Z,1008.44
2017-12-10T01:14:43.459Z,1008.48
2017-12-10T01:15:57.617Z,1008.39
2017-12-10T01:16:59.489Z,1008.40
2017-12-10T01:18:01.366Z,1008.44
2017-12-10T01:19:03.249Z,1008.41
2017-12-10T01:20:05.071Z,1008.45
2017-12-10T01:21:06.883Z,1008.46
2017-12-10T01:22:08.765Z,1008.50
2017-12-10T01:23:10.637Z,1008.44
2017-12-10T01:24:12.517Z,1008.47
2017-12-10T01:25:26.674Z,1008.44
2017-12-10T01:26:28.558Z,1008.46
2017-12-10T01:27:30.431Z,1008.43
2017-12-10T01:28:32.314Z,1008.47
2017-12-10T01:29:34.126Z,1008.35
2017-12-10T01:30:35.948Z,1008.39
2017-12-10T01:31:37.829Z,1008.38
2017-12-10T01:32:39.710Z,1008.34
2017-12-10T01:33:41.585Z,1008.32
2017-12-10T01:34:55.743Z,1008.39
2017-12-10T01:35:57.636Z,1008.35
2017-12-10T01:36:59.500Z,1008.34
2017-12-10T01:38:01.375Z,1008.33
2017-12-10T01:39:03.190Z,1008.32
2017-12-10T01:40:05.015Z,1008.25
2017-12-10T01:41:06.900Z,1008.26
2017-12-10T01:42:08.773Z,1008.23
2017-12-10T01:43:10.658Z,1008.18
2017-12-10T01:44:24.863Z,1008.18
2017-12-10T01:45:26.736Z,1008.16
2017-12-10T01:46:28.622Z,1008.15
2017-12-10T01:47:30.511Z,1008.16
2017-12-10T01:48:32.324Z,1008.14
2017-12-10T01:49:34.148Z,1008.21
2017-12-10T01:50:36.021Z,1008.14
2017-12-10T01:51:37.903Z,1008.10
2017-12-10T01:52:39.787Z,1008.10
2017-12-10T01:53:53.937Z,1008.04
2017-12-10T01:54:55.820Z,1008.07
2017-12-10T01:55:57.703Z,1008.06
2017-12-10T01:56:59.575Z,1008.01
2017-12-10T01:58:01.400Z,1007.95
2017-12-10T01:59:03.223Z,1007.95
2017-12-10T02:00:05.105Z,1007.91
2017-12-10T02:01:06.988Z,1007.95
2017-12-10T02:02:08.861Z,1007.98
2017-12-10T02:03:23.067Z,1007.89
2017-12-10T02:04:24.953Z,1007.90
2017-12-10T02:05:26.827Z,1007.85
2017-12-10T02:06:28.701Z,1007.84
2017-12-10T02:07:30.527Z,1007.82
2017-12-10T02:08:32.348Z,1007.85
2017-12-10T02:09:34.219Z,1007.84
2017-12-10T02:10:36.101Z,1007.79
2017-12-10T02:11:37.987Z,1007.77
2017-12-10T02:12:52.131Z,1007.77
2017-12-10T02:13:54.012Z,1007.77
2017-12-10T02:14:55.894Z,1007.84
2017-12-10T02:15:57.769Z,1007.70
2017-12-10T02:16:59.592Z,1007.74
2017-12-10T02:18:01.414Z,1007.78
2017-12-10T02:19:03.297Z,1007.76
2017-12-10T02:20:05.179Z,1007.75
2017-12-10T02:21:07.066Z,1007.73
2017-12-10T02:22:21.211Z,1007.71
2017-12-10T02:23:23.087Z,1007.67
2017-12-10T02:24:24.971Z,1007.64
2017-12-10T02:25:26.841Z,1007.67
2017-12-10T02:26:28.669Z,1007.73
2017-12-10T02:27:30.475Z,1007.68
2017-12-10T02:28:32.359Z,1007.69
2017-12-10T02:29:34.232Z,1007.74
2017-12-10T02:30:36.116Z,1007.70
2017-12-10T02:31:50.273Z,1007.75
2017-12-10T02:32:52.145Z,1007.71
2017-12-10T02:33:54.017Z,1007.70
2017-12-10T02:34:55.900Z,1007.74
2017-12-10T02:35:57.725Z,1007.63
2017-12-10T02:36:59.534Z,1007.71
2017-12-10T02:38:01.418Z,1007.70
2017-12-10T02:39:03.290Z,1007.65
2017-12-10T02:40:05.173Z,1007.57
2017-12-10T02:41:19.330Z,1007.55
2017-12-10T02:42:21.213Z,1007.57
2017-12-10T02:43:23.086Z,1007.57
2017-12-10T02:44:24.964Z,1007.58
2017-12-10T02:45:26.777Z,1007.59
2017-12-10T02:46:28.589Z,1007.55
2017-12-10T02:47:30.470Z,1007.61
2017-12-10T02:48:32.353Z,1007.58
2017-12-10T02:49:34.236Z,1007.62
2017-12-10T02:50:48.394Z,1007.58
2017-12-10T02:51:50.277Z,1007.58
2017-12-10T02:52:52.159Z,1007.58
2017-12-10T02:53:54.043Z,1007.58
2017-12-10T02:54:55.868Z,1007.61
2017-12-10T02:55:57.679Z,1007.61
2017-12-10T02:56:59.563Z,1007.64
2017-12-10T02:58:01.445Z,1007.62
2017-12-10T02:59:03.325Z,1007.56
2017-12-10T03:00:17.479Z,1007.59
2017-12-10T03:01:19.360Z,1007.59
2017-12-10T03:02:21.242Z,1007.55
2017-12-10T03:03:23.118Z,1007.60
2017-12-10T03:04:24.921Z,1007.61
2017-12-10T03:05:26.743Z,1007.57
2017-12-10T03:06:28.626Z,1007.56
2017-12-10T03:07:30.496Z,1007.58
2017-12-10T03:08:32.374Z,1007.52
2017-12-10T03:09:46.528Z,1007.50
2017-12-10T03:10:48.408Z,1007.44
2017-12-10T03:11:50.288Z,1007.41
2017-12-10T03:12:52.181Z,1007.41
2017-12-10T03:13:53.988Z,1007.38
2017-12-10T03:14:55.810Z,1007.38
2017-12-10T03:15:57.690Z,1007.35
2017-12-10T03:16:59.569Z,1007.35
2017-12-10T03:18:01.450Z,1007.33
2017-12-10T03:19:15.653Z,1007.32
2017-12-10T03:20:17.536Z,1007.29
2017-12-10T03:21:19.421Z,1007.30
2017-12-10T03:22:21.295Z,1007.30
2017-12-10T03:23:23.116Z,1007.30
2017-12-10T03:24:24.926Z,1007.30
2017-12-10T03:25:26.811Z,1007.25
2017-12-10T03:26:28.696Z,1007.23
2017-12-10T03:27:30.566Z,1007.24
2017-12-10T03:28:44.719Z,1007.25
2017-12-10T03:29:46.598Z,1007.24
2017-12-10T03:30:48.471Z,1007.26
2017-12-10T03:31:50.340Z,1007.24
2017-12-10T03:32:52.163Z,1007.22
2017-12-10T03:33:53.972Z,1007.24
2017-12-10T03:34:55.845Z,1007.21
2017-12-10T03:35:57.728Z,1007.19
2017-12-10T03:36:59.599Z,1007.20
2017-12-10T03:38:13.753Z,1007.18
2017-12-10T03:39:15.635Z,1007.19
2017-12-10T03:40:17.521Z,1007.17
2017-12-10T03:41:19.392Z,1007.20
2017-12-10T03:42:21.214Z,1007.16
2017-12-10T03:43:23.025Z,1007.22
2017-12-10T03:44:24.907Z,1007.20
2017-12-10T03:45:26.793Z,1007.16
2017-12-10T03:46:28.664Z,1007.25
2017-12-10T03:47:42.806Z,1007.24
2017-12-10T03:48:44.676Z,1007.19
2017-12-10T03:49:46.559Z,1007.14
2017-12-10T03:50:48.446Z,1007.15
2017-12-10T03:51:50.251Z,1007.15
2017-12-10T03:52:52.072Z,1007.09
2017-12-10T03:53:53.957Z,1007.08
2017-12-10T03:54:55.831Z,1007.04
2017-12-10T03:55:57.706Z,1006.99
2017-12-10T03:57:11.900Z,1007.04
2017-12-10T03:58:13.783Z,1006.98
2017-12-10T03:59:15.666Z,1006.97
2017-12-10T04:00:17.550Z,1006.99
2017-12-10T04:01:19.361Z,1006.91
2017-12-10T04:02:21.182Z,1006.91
2017-12-10T04:03:23.067Z,1006.93
2017-12-10T04:04:24.939Z,1006.92
2017-12-10T04:05:26.822Z,1006.92
2017-12-10T04:06:40.967Z,1006.86
2017-12-10T04:07:42.849Z,1006.86
2017-12-10T04:08:44.731Z,1006.84
2017-12-10T04:09:46.616Z,1006.81
2017-12-10T04:10:48.438Z,1006.76
2017-12-10T04:11:50.252Z,1006.76
2017-12-10T04:12:52.119Z,1006.72
2017-12-10T04:13:53.994Z,1006.72
2017-12-10T04:14:55.874Z,1006.70
2017-12-10T04:16:10.078Z,1006.68
2017-12-10T04:17:11.948Z,1006.68
2017-12-10T04:18:13.830Z,1006.63
2017-12-10T04:19:15.701Z,1006.64
2017-12-10T04:20:17.513Z,1006.61
2017-12-10T04:21:19.333Z,1006.63
2017-12-10T04:22:21.216Z,1006.61
2017-12-10T04:23:23.086Z,1006.61
2017-12-10T04:24:24.971Z,1006.65
2017-12-10T04:25:39.109Z,1006.63
2017-12-10T04:26:40.992Z,1006.64
2017-12-10T04:27:42.864Z,1006.64
2017-12-10T04:28:44.735Z,1006.58
2017-12-10T04:29:46.558Z,1006.57
2017-12-10T04:30:48.367Z,1006.57
2017-12-10T04:31:50.247Z,1006.56
2017-12-10T04:32:52.117Z,1006.60
2017-12-10T04:33:53.987Z,1006.61
2017-12-10T04:35:08.145Z,1006.58
2017-12-10T04:36:10.017Z,1006.62
2017-12-10T04:37:11.900Z,1006.56
2017-12-10T04:38:13.770Z,1006.61
2017-12-10T04:39:15.591Z,1006.59
2017-12-10T04:40:17.398Z,1006.59
2017-12-10T04:41:19.279Z,1006.59
2017-12-10T04:42:21.149Z,1006.59
2017-12-10T04:43:23.030Z,1006.55
2017-12-10T04:44:37.182Z,1006.54
2017-12-10T04:45:39.068Z,1006.51
2017-12-10T04:46:40.940Z,1006.46
2017-12-10T04:47:42.811Z,1006.48
2017-12-10T04:48:44.630Z,1006.48
2017-12-10T04:49:46.449Z,1006.37
2017-12-10T04:50:48.334Z,1006.43
2017-12-10T04:51:50.212Z,1006.44
2017-12-10T04:52:52.079Z,1006.39
2017-12-10T04:54:06.232Z,1006.44
2017-12-10T04:55:08.114Z,1006.43
2017-12-10T04:56:09.994Z,1006.42
2017-12-10T04:57:11.879Z,1006.37
2017-12-10T04:58:13.701Z,1006.38
2017-12-10T04:59:15.521Z,1006.39
2017-12-10T05:00:17.393Z,1006.38
2017-12-10T05:01:19.334Z,1006.39
2017-12-10T05:02:21.331Z,1006.39
2017-12-10T05:03:35.655Z,1006.34
2017-12-10T05:04:37.678Z,1006.32
2017-12-10T05:05:39.694Z,1006.42
2017-12-10T05:06:41.688Z,1006.37
2017-12-10T05:07:43.609Z,1006.34
2017-12-10T05:08:45.512Z,1006.26
2017-12-10T05:09:47.488Z,1006.24
2017-12-10T05:10:49.508Z,1006.17
2017-12-10T05:11:51.555Z,1006.18
2017-12-10T05:13:05.924Z,1006.20
2017-12-10T05:14:07.923Z,1006.16
2017-12-10T05:15:09.897Z,1006.15
2017-12-10T05:16:11.880Z,1006.13
2017-12-10T05:17:13.814Z,1006.10
2017-12-10T05:18:15.749Z,1006.10
2017-12-10T05:19:17.735Z,1006.08
2017-12-10T05:20:19.607Z,1006.03
2017-12-10T05:21:21.486Z,1006.01
2017-12-10T05:22:35.641Z,1006.02
2017-12-10T05:23:37.512Z,1005.91
2017-12-10T05:24:39.392Z,1005.87
2017-12-10T05:25:41.272Z,1005.86
2017-12-10T05:26:43.091Z,1005.89
2017-12-10T05:27:44.911Z,1005.87
2017-12-10T05:28:46.792Z,1005.91
2017-12-10T05:29:48.670Z,1005.82
2017-12-10T05:30:50.539Z,1005.89
2017-12-10T05:32:04.680Z,1005.83
2017-12-10T05:33:06.564Z,1005.83
2017-12-10T05:34:08.456Z,1005.78
2017-12-10T05:35:10.330Z,1005.71
2017-12-10T05:36:12.152Z,1005.77
2017-12-10T05:37:13.972Z,1005.74
2017-12-10T05:38:15.844Z,1005.73
2017-12-10T05:39:17.724Z,1005.77
2017-12-10T05:40:19.604Z,1005.70
2017-12-10T05:41:33.758Z,1005.68
2017-12-10T05:42:35.635Z,1005.68
2017-12-10T05:43:37.516Z,1005.64
2017-12-10T05:44:39.384Z,1005.61
2017-12-10T05:45:41.202Z,1005.61
2017-12-10T05:46:43.022Z,1005.60
2017-12-10T05:47:44.902Z,1005.54
2017-12-10T05:48:46.774Z,1005.50
2017-12-10T05:49:48.640Z,1005.52
2017-12-10T05:51:02.793Z,1005.53
2017-12-10T05:52:04.672Z,1005.48
2017-12-10T05:53:06.550Z,1005.46
2017-12-10T05:54:08.433Z,1005.46
2017-12-10T05:55:10.253Z,1005.46
2017-12-10T05:56:12.073Z,1005.39
2017-12-10T05:57:13.942Z,1005.43
2017-12-10T05:58:15.821Z,1005.39
2017-12-10T05:59:17.703Z,1005.42
2017-12-10T06:00:31.852Z,1005.40
2017-12-10T06:01:33.717Z,1005.35
2017-12-10T06:02:35.589Z,1005.42
2017-12-10T06:03:37.468Z,1005.37
2017-12-10T06:04:39.289Z,1005.31
2017-12-10T06:05:41.108Z,1005.34
2017-12-10T06:06:42.990Z,1005.36
2017-12-10T06:07:44.858Z,1005.34
2017-12-10T06:08:46.739Z,1005.36
2017-12-10T06:10:00.893Z,1005.39
2017-12-10T06:11:02.763Z,1005.43
2017-12-10T06:12:04.635Z,1005.31
2017-12-10T06:13:06.519Z,1005.35
2017-12-10T06:14:08.324Z,1005.22
2017-12-10T06:15:10.133Z,1005.28
2017-12-10T06:16:12.002Z,1005.23
2017-12-10T06:17:13.882Z,1005.23
2017-12-10T06:18:15.755Z,1005.22
2017-12-10T06:19:29.895Z,1005.22
2017-12-10T06:20:31.778Z,1005.22
2017-12-10T06:21:33.659Z,1005.18
2017-12-10T06:22:35.532Z,1005.20
2017-12-10T06:23:37.352Z,1005.15
2017-12-10T06:24:39.173Z,1005.13
2017-12-10T06:25:41.056Z,1005.10
2017-12-10T06:26:42.933Z,1005.08
2017-12-10T06:27:44.853Z,1005.10
2017-12-10T06:28:58.944Z,1005.09
2017-12-10T06:30:00.824Z,1005.10
2017-12-10T06:31:02.699Z,1005.09
2017-12-10T06:32:04.567Z,1004.99
2017-12-10T06:33:06.388Z,1005.05
2017-12-10T06:34:08.208Z,1004.99
2017-12-10T06:35:10.088Z,1005.05
2017-12-10T06:36:11.973Z,1005.00
2017-12-10T06:37:13.853Z,1005.05
2017-12-10T06:38:28.010Z,1004.95
2017-12-10T06:39:29.882Z,1004.98
2017-12-10T06:40:31.765Z,1004.97
2017-12-10T06:41:33.637Z,1004.98
2017-12-10T06:42:35.461Z,1004.97
2017-12-10T06:43:37.333Z,1004.98
2017-12-10T06:44:39.144Z,1004.93
2017-12-10T06:45:41.016Z,1004.95
2017-12-10T06:46:42.899Z,1004.90
2017-12-10T06:47:57.058Z,1004.89
2017-12-10T06:48:58.935Z,1004.82
2017-12-10T06:50:00.806Z,1004.82
2017-12-10T06:51:02.691Z,1004.83
2017-12-10T06:52:04.514Z,1004.84
2017-12-10T06:53:06.336Z,1004.80
2017-12-10T06:54:08.223Z,1004.74
2017-12-10T06:55:10.096Z,1004.77
2017-12-10T06:56:11.969Z,1004.77
2017-12-10T06:57:26.126Z,1004.71
2017-12-10T06:58:28.001Z,1004.64
2017-12-10T06:59:29.874Z,1004.54
2017-12-10T07:00:31.792Z,1004.60
2017-12-10T07:01:33.570Z,1004.60
2017-12-10T07:02:35.382Z,1004.56
2017-12-10T07:03:37.265Z,1004.55
2017-12-10T07:04:39.141Z,1004.54
2017-12-10T07:05:41.024Z,1004.49
2017-12-10T07:06:55.171Z,1004.58
2017-12-10T07:07:57.042Z,1004.51
2017-12-10T07:08:58.923Z,1004.61
2017-12-10T07:10:00.795Z,1004.57
2017-12-10T07:11:02.619Z,1004.53
2017-12-10T07:12:04.443Z,1004.57
2017-12-10T07:13:06.328Z,1004.65
2017-12-10T07:14:08.214Z,1004.60
2017-12-10T07:15:10.098Z,1004.63
2017-12-10T07:16:24.259Z,1004.61
2017-12-10T07:17:26.135Z,1004.59
2017-12-10T07:18:28.025Z,1004.62
2017-12-10T07:19:29.904Z,1004.63
2017-12-10T07:20:31.711Z,1004.62
2017-12-10T07:21:33.536Z,1004.52
2017-12-10T07:22:35.420Z,1004.56
2017-12-10T07:23:37.287Z,1004.55
2017-12-10T07:24:39.174Z,1004.50
2017-12-10T07:25:53.334Z,1004.50
2017-12-10T07:26:55.209Z,1004.58
2017-12-10T07:27:57.094Z,1004.52
2017-12-10T07:28:58.973Z,1004.63
2017-12-10T07:30:00.800Z,1004.61
2017-12-10T07:31:02.611Z,1004.60
2017-12-10T07:32:04.489Z,1004.52
2017-12-10T07:33:06.366Z,1004.64
2017-12-10T07:34:08.241Z,1004.56
2017-12-10T07:35:22.466Z,1004.59
2017-12-10T07:36:24.331Z,1004.48
2017-12-10T07:37:26.219Z,1004.41
2017-12-10T07:38:28.097Z,1004.42
2017-12-10T07:39:29.911Z,1004.37
2017-12-10T07:40:31.724Z,1004.39
2017-12-10T07:41:33.640Z,1004.35
2017-12-10T07:42:35.545Z,1004.31
2017-12-10T07:43:37.444Z,1004.22
2017-12-10T07:44:51.594Z,1004.22
2017-12-10T07:45:53.468Z,1004.18
2017-12-10T07:46:55.356Z,1004.14
2017-12-10T07:47:57.236Z,1004.11
2017-12-10T07:48:59.062Z,1004.06
2017-12-10T07:50:00.893Z,1004.03
2017-12-10T07:51:02.778Z,1003.99
2017-12-10T07:52:04.944Z,1003.97
2017-12-10T07:53:06.781Z,1003.92
2017-12-10T07:54:20.980Z,1003.88
2017-12-10T07:55:22.856Z,1003.89
2017-12-10T07:56:24.746Z,1003.87
2017-12-10T07:57:26.624Z,1003.96
2017-12-10T07:58:28.441Z,1003.85
2017-12-10T07:59:30.257Z,1003.91
2017-12-10T08:00:32.258Z,1003.81
2017-12-10T08:01:34.122Z,1003.83
2017-12-10T08:02:35.989Z,1003.83
2017-12-10T08:03:50.138Z,1003.81
2017-12-10T08:04:52.026Z,1003.75
2017-12-10T08:05:53.921Z,1003.79
2017-12-10T08:06:55.818Z,1003.74
2017-12-10T08:07:57.646Z,1003.75
2017-12-10T08:08:59.472Z,1003.72
2017-12-10T08:10:01.365Z,1003.66
2017-12-10T08:11:03.230Z,1003.65
2017-12-10T08:12:05.112Z,1003.61
2017-12-10T08:13:19.279Z,1003.55
2017-12-10T08:14:21.147Z,1003.51
2017-12-10T08:15:23.033Z,1003.43
2017-12-10T08:16:24.907Z,1003.33
2017-12-10T08:17:26.733Z,1003.17
2017-12-10T08:18:28.561Z,1003.24
2017-12-10T08:19:30.438Z,1003.06
2017-12-10T08:20:32.329Z,1003.24
2017-12-10T08:21:34.217Z,1003.23
2017-12-10T08:22:48.361Z,1003.09
2017-12-10T08:23:50.264Z,1003.16
2017-12-10T08:24:52.148Z,1003.08
2017-12-10T08:25:54.035Z,1003.03
2017-12-10T08:26:55.861Z,1003.00
2017-12-10T08:27:57.688Z,1002.96
2017-12-10T08:28:59.574Z,1002.91
2017-12-10T08:30:01.450Z,1002.89
2017-12-10T08:31:03.338Z,1002.89
2017-12-10T08:32:17.500Z,1002.87
2017-12-10T08:33:19.376Z,1002.84
2017-12-10T08:34:21.264Z,1002.83
2017-12-10T08:35:23.142Z,1002.85
2017-12-10T08:36:24.975Z,1002.82
2017-12-10T08:37:26.793Z,1002.85
2017-12-10T08:38:28.685Z,1002.88
2017-12-10T08:39:30.563Z,1002.84
2017-12-10T08:40:32.450Z,1002.85
2017-12-10T08:41:46.598Z,1002.83
2017-12-10T08:42:48.503Z,1002.86
2017-12-10T08:43:50.368Z,1002.88
2017-12-10T08:44:52.247Z,1002.81
2017-12-10T08:45:54.073Z,1002.91
2017-12-10T08:46:55.900Z,1002.74
2017-12-10T08:47:57.788Z,1002.77
2017-12-10T08:48:59.666Z,1002.80
2017-12-10T08:50:01.542Z,1002.77
2017-12-10T08:51:15.773Z,1002.83
2017-12-10T08:52:17.651Z,1002.77
2017-12-10T08:53:19.528Z,1002.70
2017-12-10T08:54:21.415Z,1002.87
2017-12-10T08:55:23.359Z,1002.79
2017-12-10T08:56:25.191Z,1002.77
2017-12-10T08:57:27.020Z,1002.67
2017-12-10T08:58:28.897Z,1002.72
2017-12-10T08:59:30.783Z,1002.75
2017-12-10T09:00:44.942Z,1002.73
2017-12-10T09:01:46.817Z,1002.80
2017-12-10T09:02:48.705Z,1002.76
2017-12-10T09:03:50.584Z,1002.74
2017-12-10T09:04:52.420Z,1002.79
2017-12-10T09:05:54.229Z,1002.69
2017-12-10T09:06:56.114Z,1002.69
2017-12-10T09:07:58.003Z,1002.72
2017-12-10T09:08:59.891Z,1002.71
2017-12-10T09:10:14.052Z,1002.63
2017-12-10T09:11:15.928Z,1002.51
2017-12-10T09:12:17.815Z,1002.47
2017-12-10T09:13:19.703Z,1002.41
2017-12-10T09:14:21.920Z,1002.49
2017-12-10T09:15:23.722Z,1002.44
2017-12-10T09:16:25.624Z,1002.41
2017-12-10T09:17:27.499Z,1002.38
2017-12-10T09:18:29.413Z,1002.32
2017-12-10T09:19:43.614Z,1002.31
2017-12-10T09:20:45.814Z,1002.30
2017-12-10T09:21:47.731Z,1002.25
2017-12-10T09:22:49.631Z,1002.17
2017-12-10T09:23:51.477Z,1002.12
2017-12-10T09:24:53.293Z,1002.09
2017-12-10T09:25:55.185Z,1002.08
2017-12-10T09:26:57.096Z,1001.95
2017-12-10T09:27:58.982Z,1001.94
2017-12-10T09:29:13.142Z,1001.98
2017-12-10T09:30:15.021Z,1001.91
2017-12-10T09:31:16.920Z,1001.95
2017-12-10T09:32:19.117Z,1001.89
2017-12-10T09:33:20.941Z,1001.73
2017-12-10T09:34:22.795Z,1001.71
2017-12-10T09:35:24.682Z,1001.73
2017-12-10T09:36:26.601Z,1001.67
2017-12-10T09:37:28.434Z,1001.64
2017-12-10T09:38:42.614Z,1001.62
2017-12-10T09:39:44.472Z,1001.49
2017-12-10T09:40:46.360Z,1001.51
2017-12-10T09:41:48.341Z,1001.44
2017-12-10T09:42:50.123Z,1001.54
2017-12-10T09:43:51.950Z,1001.44
2017-12-10T09:44:54.377Z,1001.39
2017-12-10T09:45:56.243Z,1001.32
2017-12-10T09:46:58.146Z,1001.27
2017-12-10T09:48:12.306Z,1001.27
2017-12-10T09:49:14.143Z,1001.24
2017-12-10T09:50:16.042Z,1001.28
2017-12-10T09:51:17.917Z,1001.23
2017-12-10T09:52:20.114Z,1001.17
2017-12-10T09:53:22.292Z,1001.00
2017-12-10T09:54:24.100Z,1001.02
2017-12-10T09:55:25.990Z,1000.98
2017-12-10T09:56:27.892Z,1000.90
2017-12-10T09:57:42.636Z,1000.64
2017-12-10T09:58:44.551Z,1000.84
2017-12-10T09:59:46.428Z,1000.79
2017-12-10T10:00:48.307Z,1000.75
2017-12-10T10:01:50.135Z,1000.80
2017-12-10T10:02:51.961Z,1000.73
2017-12-10T10:03:53.857Z,1000.63
2017-12-10T10:04:55.774Z,1000.66
2017-12-10T10:05:57.621Z,1000.65
2017-12-10T10:07:11.832Z,1000.59
2017-12-10T10:08:14.008Z,1000.62
2017-12-10T10:09:15.881Z,1000.60
2017-12-10T10:10:17.758Z,1000.44
2017-12-10T10:11:19.585Z,1000.43
2017-12-10T10:12:21.401Z,1000.34
2017-12-10T10:13:23.301Z,1000.33
2017-12-10T10:14:25.155Z,1000.20
2017-12-10T10:15:27.041Z,1000.23
2017-12-10T10:16:41.200Z,1000.26
2017-12-10T10:17:43.697Z,1000.22
2017-12-10T10:18:46.572Z,1000.16
2017-12-10T10:19:49.979Z,1000.19
2017-12-10T10:20:52.620Z,1000.12
2017-12-10T10:21:54.455Z,1000.12
2017-12-10T10:22:56.326Z,1000.08
2017-12-10T10:23:58.217Z,1000.10
2017-12-10T10:25:00.093Z,1000.10
2017-12-10T10:26:14.444Z,1000.16
2017-12-10T10:27:17.233Z,1000.12
2017-12-10T10:28:19.958Z,1000.12
2017-12-10T10:29:22.703Z,1000.13
2017-12-10T10:30:25.614Z,1000.09
2017-12-10T10:31:28.582Z,1000.06
2017-12-10T10:32:31.450Z,999.95
2017-12-10T10:33:34.377Z,999.98
2017-12-10T10:34:37.598Z,999.95
2017-12-10T10:35:53.776Z,999.91
2017-12-10T10:36:56.981Z,999.91
2017-12-10T10:37:59.942Z,999.86
2017-12-10T10:39:02.644Z,999.80
2017-12-10T10:40:05.571Z,999.84
2017-12-10T10:41:08.207Z,999.88
2017-12-10T10:42:10.255Z,999.81
2017-12-10T10:43:12.135Z,999.81
2017-12-10T10:44:14.021Z,999.80
2017-12-10T10:45:28.171Z,999.75
2017-12-10T10:46:30.048Z,999.78
2017-12-10T10:47:31.936Z,999.66
2017-12-10T10:48:33.815Z,999.47
2017-12-10T10:49:36.368Z,999.47
2017-12-10T10:50:39.313Z,999.49
2017-12-10T10:51:42.332Z,999.43
2017-12-10T10:52:45.286Z,999.37
2017-12-10T10:53:48.808Z,999.14
2017-12-10T10:55:04.173Z,999.10
2017-12-10T10:56:07.503Z,998.96
2017-12-10T10:57:10.228Z,998.88
2017-12-10T10:58:12.949Z,998.83
2017-12-10T10:59:15.559Z,998.78
2017-12-10T11:00:17.579Z,998.78
2017-12-10T11:01:19.464Z,998.79
2017-12-10T11:02:21.352Z,998.74
2017-12-10T11:03:23.582Z,998.73
2017-12-10T11:04:37.736Z,998.70
2017-12-10T11:05:39.612Z,998.73
2017-12-10T11:06:41.501Z,998.75
2017-12-10T11:07:43.380Z,998.74
2017-12-10T11:08:45.194Z,998.65
2017-12-10T11:09:47.009Z,998.58
2017-12-10T11:10:48.909Z,998.61
2017-12-10T11:11:50.781Z,998.60
2017-12-10T11:12:52.660Z,998.62
2017-12-10T11:14:06.861Z,998.60
2017-12-10T11:15:08.738Z,998.59
2017-12-10T11:16:10.623Z,998.57
2017-12-10T11:17:12.499Z,998.54
2017-12-10T11:18:14.322Z,998.45
2017-12-10T11:19:16.143Z,998.41
2017-12-10T11:20:18.017Z,998.43
2017-12-10T11:21:19.898Z,998.40
2017-12-10T11:22:21.779Z,998.37
2017-12-10T11:23:35.942Z,998.38
2017-12-10T11:24:37.808Z,998.30
2017-12-10T11:25:39.691Z,998.30
2017-12-10T11:26:41.568Z,998.25
2017-12-10T11:27:43.396Z,998.23
2017-12-10T11:28:45.198Z,998.14
2017-12-10T11:29:47.074Z,998.12
2017-12-10T11:30:48.956Z,998.15
2017-12-10T11:31:50.860Z,998.10
2017-12-10T11:33:05.024Z,998.08
2017-12-10T11:34:06.907Z,998.05
2017-12-10T11:35:08.796Z,998.02
2017-12-10T11:36:10.686Z,998.07
2017-12-10T11:37:12.624Z,998.01
2017-12-10T11:38:14.405Z,997.97
2017-12-10T11:39:16.288Z,997.93
2017-12-10T11:40:18.165Z,997.86
2017-12-10T11:41:20.049Z,997.90
2017-12-10T11:42:34.652Z,997.89
2017-12-10T11:43:36.522Z,997.87
2017-12-10T11:44:38.593Z,997.86
2017-12-10T11:45:40.449Z,997.89
2017-12-10T11:46:42.283Z,997.84
2017-12-10T11:47:44.097Z,997.70
2017-12-10T11:48:45.979Z,997.73
2017-12-10T11:49:47.858Z,997.72
2017-12-10T11:50:49.740Z,997.72
2017-12-10T11:52:03.897Z,997.73
2017-12-10T11:53:05.777Z,997.64
2017-12-10T11:54:07.664Z,997.65
2017-12-10T11:55:09.550Z,997.63
2017-12-10T11:56:11.367Z,997.60
2017-12-10T11:57:13.213Z,997.56
2017-12-10T11:58:15.066Z,997.51
2017-12-10T11:59:16.945Z,997.48
2017-12-10T12:00:18.828Z,997.38
2017-12-10T12:01:32.981Z,997.32
2017-12-10T12:02:34.863Z,997.34
2017-12-10T12:03:36.738Z,997.31
2017-12-10T12:04:38.614Z,997.31
2017-12-10T12:05:40.442Z,997.30
2017-12-10T12:06:42.268Z,997.20
2017-12-10T12:07:44.157Z,997.08
2017-12-10T12:08:46.046Z,997.07
2017-12-10T12:09:47.953Z,997.01
2017-12-10T12:11:02.435Z,996.98
2017-12-10T12:12:04.310Z,996.96
2017-12-10T12:13:06.178Z,996.84
2017-12-10T12:14:08.070Z,996.81
2017-12-10T12:15:09.906Z,996.79
2017-12-10T12:16:12.034Z,996.75
2017-12-10T12:17:13.891Z,996.73
2017-12-10T12:18:15.780Z,996.70
2017-12-10T12:19:18.039Z,996.55
2017-12-10T12:20:32.161Z,996.54
2017-12-10T12:21:34.373Z,996.54
2017-12-10T12:22:36.275Z,996.43
2017-12-10T12:23:38.155Z,996.41
2017-12-10T12:24:39.980Z,996.49
2017-12-10T12:25:41.805Z,996.38
2017-12-10T12:26:43.692Z,996.25
2017-12-10T12:27:45.570Z,996.11
2017-12-10T12:28:47.942Z,996.06
2017-12-10T12:30:02.183Z,996.00
2017-12-10T12:31:04.068Z,995.94
2017-12-10T12:32:05.951Z,995.88
2017-12-10T12:33:07.830Z,995.87
2017-12-10T12:34:10.006Z,995.78
2017-12-10T12:35:11.823Z,995.69
2017-12-10T12:36:13.722Z,995.71
2017-12-10T12:37:15.640Z,995.62
2017-12-10T12:38:17.516Z,995.62
2017-12-10T12:39:31.702Z,995.53
2017-12-10T12:40:33.591Z,995.48
2017-12-10T12:41:35.825Z,995.46
2017-12-10T12:42:37.701Z,995.40
2017-12-10T12:43:39.547Z,995.45
2017-12-10T12:44:41.401Z,995.39
2017-12-10T12:45:43.334Z,995.34
2017-12-10T12:46:45.536Z,995.35
2017-12-10T12:47:47.419Z,995.28
2017-12-10T12:49:01.917Z,995.14